createdAt,value
2022-10-20T00:03:57.235Z,100023.25
2022-10-20T00:09:02.810Z,100031.65
2022-10-20T00:14:06.192Z,100028.84
2022-10-20T00:19:09.693Z,100032.61
2022-10-20T00:24:12.609Z,100036.55
2022-10-20T00:29:16.064Z,100044.13
2022-10-20T00:34:18.995Z,100044.58
2022-10-20T00:39:22.111Z,100043.73
2022-10-20T00:44:46.678Z,100040.75
2022-10-20T00:49:50.550Z,100042.09
2022-10-20T00:54:53.579Z,100042.81
2022-10-20T00:59:56.670Z,100042.67
2022-10-20T01:04:59.857Z,100039.21
2022-10-20T01:10:04.929Z,100038.27
2022-10-20T01:15:16.468Z,100035.64
2022-10-20T01:21:01.218Z,100036.97
2022-10-20T01:26:17.701Z,100031.73
2022-10-20T01:31:30.284Z,100031.52
2022-10-20T01:37:02.676Z,100034.92
2022-10-20T01:42:16.102Z,100036.23
2022-10-20T01:47:21.179Z,100038.79
2022-10-20T01:52:24.905Z,100040.77
2022-10-20T01:57:33.517Z,100033.69
2022-10-20T02:03:03.059Z,100031.20
2022-10-20T02:08:08.646Z,100035.29
2022-10-20T02:13:13.109Z,100037.46
2022-10-20T02:18:20.930Z,100033.75
2022-10-20T02:23:24.196Z,100034.39
2022-10-20T02:28:28.556Z,100032.80
2022-10-20T02:33:32.317Z,100034.86
2022-10-20T02:38:35.200Z,100034.92
2022-10-20T02:43:38.505Z,100038.98
2022-10-20T02:48:41.487Z,100039.94
2022-10-20T02:53:45.266Z,100034.97
2022-10-20T02:58:48.981Z,100038.17
2022-10-20T03:03:59.846Z,100041.59
2022-10-20T03:09:03.730Z,100050.06
2022-10-20T03:14:06.892Z,100055.61
2022-10-20T03:19:11.749Z,100059.75
2022-10-20T03:24:15.268Z,100060.30
2022-10-20T03:29:18.182Z,100068.92
2022-10-20T03:34:21.240Z,100075.44
2022-10-20T03:39:24.241Z,100076.84
2022-10-20T03:44:27.195Z,100083.42
2022-10-20T03:49:31.645Z,100085.27
2022-10-20T03:54:36.338Z,100088.94
2022-10-20T03:59:39.274Z,100090.18
2022-10-20T04:04:42.168Z,100095.77
2022-10-20T04:09:45.083Z,100094.54
2022-10-20T04:14:48.960Z,100092.45
2022-10-20T04:19:52.027Z,100090.73
2022-10-20T04:24:55.260Z,100090.98
2022-10-20T04:29:58.180Z,100093.34
2022-10-20T04:35:01.406Z,100098.23
2022-10-20T04:40:05.620Z,100095.89
2022-10-20T04:45:09.540Z,100092.42
2022-10-20T04:50:12.506Z,100092.52
2022-10-20T04:55:15.474Z,100092.77
2022-10-20T05:00:18.584Z,100094.30
2022-10-20T05:05:21.556Z,100090.76
2022-10-20T05:10:24.679Z,100098.66
2022-10-20T05:15:27.797Z,100105.02
2022-10-20T05:20:36.807Z,100106.72
2022-10-20T05:25:44.310Z,100108.44
2022-10-20T05:30:47.421Z,100114.83
2022-10-20T05:35:50.297Z,100121.64
2022-10-20T05:40:53.162Z,100125.33
2022-10-20T05:45:56.091Z,100124.92
2022-10-20T05:51:17.384Z,100130.46
2022-10-20T05:56:22.148Z,100131.11
2022-10-20T06:01:47.907Z,100134.46
2022-10-20T06:06:52.598Z,100141.04
2022-10-20T06:11:55.637Z,100142.03
2022-10-20T06:16:59.077Z,100144.91
2022-10-20T06:22:05.513Z,100149.85
2022-10-20T06:27:09.815Z,100146.44
2022-10-20T06:37:20.773Z,100154.83
2022-10-20T06:42:26.308Z,100157.68
2022-10-20T06:47:30.866Z,100152.23
2022-10-20T06:52:34.150Z,100150.19
2022-10-20T06:57:37.248Z,100145.31
2022-10-20T07:02:40.118Z,100148.02
2022-10-20T07:07:43.109Z,100153.00
2022-10-20T07:12:46.358Z,100152.05
2022-10-20T07:17:49.262Z,100149.44
2022-10-20T07:22:52.323Z,100144.95
2022-10-20T07:27:55.203Z,100143.50
2022-10-20T07:32:58.102Z,100145.07
2022-10-20T07:38:01.555Z,100139.44
2022-10-20T07:43:04.756Z,100142.03
2022-10-20T07:48:09.971Z,100131.52
2022-10-20T07:53:13.084Z,100125.77
2022-10-20T07:58:15.984Z,100129.27
2022-10-20T08:03:18.813Z,100132.16
2022-10-20T08:08:22.086Z,100135.65
2022-10-20T08:13:26.873Z,100140.63
2022-10-20T08:18:38.646Z,100138.09
2022-10-20T08:23:43.583Z,100141.55
2022-10-20T08:28:47.473Z,100142.34
2022-10-20T08:33:52.893Z,100144.73
2022-10-20T08:39:02.104Z,100147.33
2022-10-20T08:44:08.500Z,100150.06
2022-10-20T08:49:29.391Z,100147.75
2022-10-20T08:54:34.474Z,100149.11
2022-10-20T08:59:39.647Z,100146.98
2022-10-20T09:05:00.316Z,100147.17
2022-10-20T09:10:25.302Z,100138.19
2022-10-20T09:15:29.313Z,100135.58
2022-10-20T09:20:38.591Z,100124.04
2022-10-20T09:25:43.424Z,100114.98
2022-10-20T09:30:46.722Z,100114.79
2022-10-20T09:35:50.915Z,100112.67
2022-10-20T09:41:14.231Z,100111.06
2022-10-20T09:46:22.218Z,100110.82
2022-10-20T09:51:27.732Z,100105.05
2022-10-20T09:56:33.586Z,100106.89
2022-10-20T10:02:02.147Z,100099.48
2022-10-20T10:07:26.302Z,100096.45
2022-10-20T10:12:31.429Z,100093.77
2022-10-20T10:17:40.020Z,100097.41
2022-10-20T10:22:43.809Z,100095.89
2022-10-20T10:28:33.469Z,100089.17
2022-10-20T10:33:36.474Z,100086.18
2022-10-20T10:38:39.595Z,100081.42
2022-10-20T10:43:49.078Z,100077.00
2022-10-20T10:49:16.547Z,100073.54
2022-10-20T10:54:48.885Z,100068.79
2022-10-20T10:59:52.825Z,100064.63
2022-10-20T11:05:32.794Z,100062.13
2022-10-20T11:11:21.091Z,100055.00
2022-10-20T11:16:36.442Z,100052.54
2022-10-20T11:22:01.255Z,100047.18
2022-10-20T11:27:12.039Z,100035.19
2022-10-20T11:32:14.996Z,100027.50
2022-10-20T11:37:20.701Z,100020.19
2022-10-20T11:42:57.345Z,100010.54
2022-10-20T11:48:14.095Z,100006.13
2022-10-20T11:53:49.287Z,100001.77
2022-10-20T11:59:07.705Z,99992.86
2022-10-20T12:04:34.107Z,99988.91
2022-10-20T12:09:52.463Z,99981.31
2022-10-20T12:15:01.660Z,99976.55
2022-10-20T12:20:37.711Z,99969.27
2022-10-20T12:25:41.776Z,99965.75
2022-10-20T12:30:54.671Z,99962.08
2022-10-20T12:36:00.858Z,99955.86
2022-10-20T12:41:04.615Z,99957.52
2022-10-20T12:46:11.903Z,99944.55
2022-10-20T12:51:30.436Z,99940.66
2022-10-20T12:56:40.603Z,99930.20
2022-10-20T13:02:11.311Z,99929.15
2022-10-20T13:07:14.301Z,99926.35
2022-10-20T13:12:29.144Z,99928.23
2022-10-20T13:17:48.637Z,99925.10
2022-10-20T13:22:53.957Z,99925.67
2022-10-20T13:28:06.380Z,99927.15
2022-10-20T13:33:38.844Z,99924.33
2022-10-20T13:39:00.268Z,99918.02
2022-10-20T13:44:33.253Z,99914.50
2022-10-20T13:49:52.547Z,99913.62
2022-10-20T13:54:56.662Z,99910.98
2022-10-20T14:00:16.394Z,99906.50
2022-10-20T14:05:22.124Z,99903.45
2022-10-20T14:10:34.160Z,99902.33
2022-10-20T14:15:37.705Z,99897.93
2022-10-20T14:20:42.015Z,99898.78
2022-10-20T14:25:45.882Z,99893.16
2022-10-20T14:30:50.829Z,99892.80
2022-10-20T14:35:56.657Z,99890.92
2022-10-20T14:40:59.989Z,99886.54
2022-10-20T14:46:05.144Z,99879.67
2022-10-20T14:51:27.406Z,99881.56
2022-10-20T14:56:30.907Z,99881.04
2022-10-20T15:01:33.997Z,99879.02
2022-10-20T15:06:37.271Z,99873.38
2022-10-20T15:11:40.336Z,99874.06
2022-10-20T15:16:47.743Z,99861.84
2022-10-20T15:22:00.616Z,99854.61
2022-10-20T15:27:05.087Z,99856.52
2022-10-20T15:32:09.141Z,99851.36
2022-10-20T15:37:12.245Z,99849.69
2022-10-20T15:42:15.166Z,99840.23
2022-10-20T15:47:18.134Z,99835.75
2022-10-20T15:52:21.538Z,99835.79
2022-10-20T15:57:24.424Z,99830.38
2022-10-20T16:02:27.738Z,99835.08
2022-10-20T16:07:30.853Z,99833.01
2022-10-20T16:12:34.444Z,99833.65
2022-10-20T16:17:37.883Z,99825.36
2022-10-20T16:22:41.190Z,99827.85
2022-10-20T16:27:44.249Z,99832.77
2022-10-20T16:32:47.232Z,99840.33
2022-10-20T16:37:50.212Z,99846.55
2022-10-20T16:42:53.277Z,99848.17
2022-10-20T16:47:56.120Z,99852.59
2022-10-20T16:52:59.349Z,99851.07
2022-10-20T16:58:02.398Z,99853.20
2022-10-20T17:03:05.439Z,99856.85
2022-10-20T17:08:08.629Z,99856.02
2022-10-20T17:13:11.574Z,99855.46
2022-10-20T17:18:14.500Z,99855.95
2022-10-20T17:23:17.468Z,99848.91
2022-10-20T17:28:20.500Z,99846.36
2022-10-20T17:33:27.827Z,99856.39
2022-10-20T17:38:31.686Z,99856.52
2022-10-20T17:43:35.022Z,99859.79
2022-10-20T17:48:38.569Z,99853.05
2022-10-20T17:53:45.532Z,99849.97
2022-10-20T17:58:51.500Z,99846.60
2022-10-20T18:03:56.551Z,99850.70
2022-10-20T18:09:02.483Z,99849.13
2022-10-20T18:14:05.729Z,99844.19
2022-10-20T18:19:13.145Z,99839.39
2022-10-20T18:24:17.767Z,99839.34
2022-10-20T18:29:20.982Z,99832.53
2022-10-20T18:34:24.210Z,99831.31
2022-10-20T18:39:27.386Z,99833.39
2022-10-20T18:44:30.681Z,99833.76
2022-10-20T18:49:34.340Z,99828.99
2022-10-20T18:54:37.301Z,99828.35
2022-10-20T18:59:40.511Z,99820.77
2022-10-20T19:04:43.585Z,99817.50
2022-10-20T19:09:46.940Z,99815.00
2022-10-20T19:14:51.646Z,99813.21
2022-10-20T19:19:54.769Z,99813.22
2022-10-20T19:24:57.933Z,99807.81
2022-10-20T19:30:02.226Z,99810.77
2022-10-20T19:35:06.045Z,99803.33
2022-10-20T19:40:09.406Z,99800.02
2022-10-20T19:45:12.467Z,99801.14
2022-10-20T19:50:26.040Z,99807.04
2022-10-20T19:55:31.767Z,99810.79
2022-10-20T20:00:54.411Z,99807.12
2022-10-20T20:06:23.121Z,99798.65
2022-10-20T20:11:35.362Z,99797.96
2022-10-20T20:16:48.215Z,99798.67
2022-10-20T20:22:04.328Z,99798.05
2022-10-20T20:27:11.468Z,99796.08
2022-10-20T20:32:18.199Z,99792.72
2022-10-20T20:37:27.175Z,99792.61
2022-10-20T20:42:32.204Z,99791.10
2022-10-20T20:47:47.521Z,99782.38
2022-10-20T20:53:15.456Z,99772.99
2022-10-20T20:58:18.563Z,99764.71
2022-10-20T21:03:22.050Z,99763.49
2022-10-20T21:08:29.237Z,99761.42
2022-10-20T21:13:35.940Z,99769.00
2022-10-20T21:18:42.265Z,99764.45
2022-10-20T21:23:45.918Z,99759.58
2022-10-20T21:28:49.376Z,99745.77
2022-10-20T21:34:00.833Z,99747.58
2022-10-20T21:39:06.545Z,99739.03
2022-10-20T21:44:11.571Z,99733.55
2022-10-20T21:49:20.182Z,99724.64
2022-10-20T21:54:25.809Z,99716.84
2022-10-20T21:59:30.696Z,99720.11
2022-10-20T22:04:33.971Z,99719.80
2022-10-20T22:09:36.969Z,99715.95
2022-10-20T22:14:42.533Z,99704.98
2022-10-20T22:19:55.406Z,99698.54
2022-10-20T22:25:01.416Z,99694.77
2022-10-20T22:30:08.528Z,99693.14
2022-10-20T22:35:11.427Z,99699.00
2022-10-20T22:40:14.452Z,99688.34
2022-10-20T22:45:17.481Z,99687.48
2022-10-20T22:50:20.590Z,99682.23
2022-10-20T22:55:23.539Z,99676.40
2022-10-20T23:00:26.427Z,99677.44
2022-10-20T23:05:29.328Z,99678.70
2022-10-20T23:10:32.797Z,99673.86
2022-10-20T23:15:35.798Z,99676.63
2022-10-20T23:20:40.117Z,99676.73
2022-10-20T23:25:43.597Z,99671.77
2022-10-20T23:30:46.833Z,99669.77
2022-10-20T23:35:49.777Z,99665.48
2022-10-20T23:40:52.683Z,99656.90
2022-10-20T23:45:55.995Z,99661.56
2022-10-20T23:50:58.977Z,99657.87
2022-10-20T23:56:02.119Z,99653.41
